AUH weather

Abu Dhabi International Airport
Abu Dhabi, Abu Dhabi Emirate, United Arab Emirates

Public forecast

Using degrees Celsius for public forecast. Weather courtesy of forecast.io.

Current aviation weather report (METAR) for Abu Dhabi International Airport

Retrieved 2019/11/12 20:00 UTC (38 minutes ago):

OMAA 122000Z 06007KT CAVOK 23/12 Q1015 NOSIG

Aviation forecast (TAF) for Abu Dhabi International Airport

Retrieved 2019/11/12 18:00 UTC (3 hours ago):

TAF OMAA 121700Z 1218/1400 06006KT 8000 NSC BECMG 1300/1302 12008KT BECMG 1308/1310 36012KT BECMG 1316/1318 06006KT